Glendale, Kentucky
Current Conditions -  °F | °C
As of 12:58 AM on Sunday 23 Nov 2014 (Local Time) from KFTK Reporting Station
Overcast Overcast  
Wind Chill: 50°   Ceiling: 8000
Heat Index: 50°   Visibility: 10mi
Dew Point: 36°   Wind: 8mph
Humidity: 58%   Direction: 130°SE
Pressure: 30.03"   Gusts: NA
Location:  37.6°N, 85.91°W
Report Text: KFTK 230558Z AUTO 13007KT 10SM OVC080 10/02 A3003 RMK AO2 SLP171 T01020023 10110 20078 57009
Loading
Personal Weather Stations






























Interactive Weather Map New forecast layout! Learn more

10-Day Weather Forecast

Advertisements
Track Severe Weather on mobile